createdAt,value
2018-12-05T08:45:48.712Z,41.20
2018-12-05T08:46:48.670Z,132.50
2018-12-05T08:47:49.697Z,140.70
2018-12-05T08:48:48.659Z,127.50
2018-12-05T08:49:48.726Z,139.50
2018-12-05T08:50:48.638Z,149.70
2018-12-05T08:51:48.709Z,112.40
2018-12-05T08:52:48.607Z,77.60
2018-12-05T08:53:48.681Z,84.90
2018-12-05T08:54:48.599Z,141.80
2018-12-05T08:55:48.649Z,125.10
2018-12-05T08:56:48.558Z,89.40
2018-12-05T08:57:48.627Z,192.90
2018-12-05T08:58:48.547Z,371.10
2018-12-05T08:59:48.621Z,363.40
2018-12-05T09:00:48.512Z,193.10
2018-12-05T09:01:48.559Z,662.80
2018-12-05T09:02:48.487Z,660.50
2018-12-05T09:03:48.525Z,696.40
2018-12-05T09:04:48.490Z,523.60
2018-12-05T09:05:48.531Z,458.20
2018-12-05T09:06:48.451Z,528.50
2018-12-05T09:07:48.461Z,393.00
2018-12-05T09:08:48.417Z,345.90
2018-12-05T09:09:48.467Z,313.30
2018-12-05T09:10:48.419Z,324.20
2018-12-05T09:11:48.502Z,485.80
2018-12-05T09:12:48.375Z,506.60
2018-12-05T09:13:48.463Z,418.50
2018-12-05T09:14:48.383Z,602.00
2018-12-05T09:15:48.441Z,769.60
2018-12-05T09:16:48.351Z,662.70
2018-12-05T09:17:48.421Z,633.80
2018-12-05T09:18:48.306Z,594.70
2018-12-05T09:19:48.391Z,640.40
2018-12-05T09:20:48.313Z,646.70
2018-12-05T09:21:48.335Z,687.80
2018-12-05T09:22:48.273Z,481.00
2018-12-05T09:23:48.311Z,506.30
2018-12-05T09:24:48.251Z,454.60
2018-12-05T09:25:49.342Z,452.40
2018-12-05T09:26:48.223Z,455.60
2018-12-05T09:27:48.338Z,376.70
2018-12-05T09:28:48.201Z,341.00
2018-12-05T09:29:48.315Z,271.30
2018-12-05T09:30:48.203Z,305.50
2018-12-05T09:31:48.279Z,228.40
2018-12-05T09:32:48.159Z,155.40
2018-12-05T09:33:49.171Z,86.40
2018-12-05T09:34:48.136Z,68.60
2018-12-05T09:35:48.251Z,56.90
2018-12-05T09:36:48.105Z,77.80
2018-12-05T09:37:49.217Z,60.40
2018-12-05T09:38:48.100Z,37.50
2018-12-05T09:39:48.158Z,36.40
2018-12-05T09:40:48.093Z,25.30
2018-12-05T09:41:48.227Z,24.90
2018-12-05T09:42:48.039Z,33.50
2018-12-05T09:43:48.193Z,37.40
2018-12-05T09:44:48.020Z,36.90
2018-12-05T09:45:48.207Z,25.20
2018-12-05T09:46:48.000Z,30.70
2018-12-05T09:47:48.135Z,28.70
2018-12-05T09:48:47.973Z,19.40
2018-12-05T09:49:48.096Z,14.00
2018-12-05T09:50:47.974Z,26.30
2018-12-05T09:51:48.068Z,19.20
2018-12-05T09:52:47.924Z,13.80
2018-12-05T09:53:48.031Z,13.80
2018-12-05T09:54:47.916Z,24.60
2018-12-05T09:55:48.079Z,18.20
2018-12-05T09:56:47.883Z,20.90
2018-12-05T09:57:47.970Z,19.40
2018-12-05T09:58:47.864Z,23.50
2018-12-05T09:59:48.044Z,28.80
2018-12-05T10:00:47.870Z,23.60
2018-12-05T10:01:47.915Z,27.20
2018-12-05T10:02:47.841Z,24.30
2018-12-05T10:03:47.976Z,16.20
2018-12-05T10:04:47.796Z,16.50
2018-12-05T10:05:47.942Z,21.00
2018-12-05T10:06:47.796Z,24.30
2018-12-05T10:07:47.911Z,24.00
2018-12-05T10:08:47.744Z,19.50
2018-12-05T10:09:47.878Z,20.80
2018-12-05T10:10:47.718Z,19.70
2018-12-05T10:11:47.843Z,22.30
2018-12-05T10:12:47.702Z,14.20
2018-12-05T10:13:48.840Z,17.60
2018-12-05T10:14:47.680Z,15.70
2018-12-05T10:15:49.732Z,17.80
2018-12-05T10:16:47.682Z,12.80
2018-12-05T10:17:47.758Z,19.60
2018-12-05T10:18:47.629Z,10.70
2018-12-05T10:19:47.734Z,15.00
2018-12-05T10:20:47.618Z,12.00
2018-12-05T10:21:47.738Z,11.50
2018-12-05T10:22:47.595Z,7.60
2018-12-05T10:23:47.653Z,11.00
2018-12-05T10:24:47.563Z,11.70
2018-12-05T10:25:47.727Z,12.20
2018-12-05T10:26:47.562Z,14.60
2018-12-05T10:27:47.597Z,13.90
2018-12-05T10:28:47.522Z,13.90
2018-12-05T10:29:47.662Z,11.00
2018-12-05T10:30:47.505Z,15.70
2018-12-05T10:31:47.676Z,15.80
2018-12-05T10:32:47.476Z,14.90
2018-12-05T10:33:47.601Z,13.30
2018-12-05T10:34:47.444Z,14.00
2018-12-05T10:35:47.578Z,11.90
2018-12-05T10:36:47.448Z,14.50
2018-12-05T10:37:47.537Z,14.40
2018-12-05T10:38:47.396Z,15.20
2018-12-05T10:39:47.515Z,14.50
2018-12-05T10:40:47.375Z,13.70
2018-12-05T10:41:47.518Z,11.00
2018-12-05T10:42:47.357Z,12.10
2018-12-05T10:43:47.545Z,12.60
2018-12-05T10:44:47.341Z,17.30
2018-12-05T10:45:47.410Z,12.90
2018-12-05T10:46:47.345Z,12.80
2018-12-05T10:47:47.495Z,11.50
2018-12-05T10:48:47.304Z,13.50
2018-12-05T10:49:47.450Z,16.70
2018-12-05T10:50:47.266Z,11.30
2018-12-05T10:51:47.348Z,12.90
2018-12-05T10:52:47.237Z,11.00
2018-12-05T10:53:47.397Z,11.20
2018-12-05T10:54:47.233Z,17.10
2018-12-05T10:55:47.262Z,12.20
2018-12-05T10:56:47.226Z,10.80
2018-12-05T10:57:47.324Z,10.70
2018-12-05T10:58:47.184Z,11.80
2018-12-05T10:59:47.295Z,11.60
2018-12-05T11:00:47.181Z,9.30
2018-12-05T11:01:47.297Z,9.60
2018-12-05T11:02:47.123Z,16.80
2018-12-05T11:03:47.225Z,14.10
2018-12-05T11:04:47.110Z,12.30
2018-12-05T11:05:47.410Z,11.60
2018-12-05T11:06:47.162Z,13.00
2018-12-05T11:07:47.200Z,12.40
2018-12-05T11:08:47.055Z,13.30
2018-12-05T11:09:47.233Z,16.20
2018-12-05T11:10:47.031Z,10.60
2018-12-05T11:11:47.204Z,13.30
2018-12-05T11:12:47.037Z,12.40
2018-12-05T11:13:47.073Z,15.30
2018-12-05T11:14:46.995Z,14.00
2018-12-05T11:15:47.143Z,16.50
2018-12-05T11:16:46.987Z,8.30
2018-12-05T11:17:47.045Z,8.90
2018-12-05T11:18:46.951Z,12.90
2018-12-05T11:19:47.087Z,15.20
2018-12-05T11:20:46.923Z,18.40
2018-12-05T11:21:49.871Z,16.90
2018-12-05T11:22:46.920Z,18.00
2018-12-05T11:23:47.595Z,17.50
2018-12-05T11:24:46.873Z,15.00
2018-12-05T11:25:46.972Z,15.40
2018-12-05T11:26:46.849Z,19.50
2018-12-05T11:27:47.081Z,16.00
2018-12-05T11:28:46.840Z,16.90
2018-12-05T11:29:46.909Z,17.70
2018-12-05T11:30:46.811Z,17.80
2018-12-05T11:31:46.878Z,13.90
2018-12-05T11:32:46.946Z,11.70
2018-12-05T11:33:46.949Z,15.80
2018-12-05T11:34:46.765Z,11.80
2018-12-05T11:35:46.821Z,14.30
2018-12-05T11:36:46.739Z,22.10
2018-12-05T11:37:46.926Z,18.40
2018-12-05T11:38:46.728Z,22.10
2018-12-05T11:39:46.852Z,8.90
2018-12-05T11:40:46.710Z,19.20
2018-12-05T11:41:46.834Z,14.90
2018-12-05T11:42:46.745Z,15.50
2018-12-05T11:43:46.788Z,14.70
2018-12-05T11:44:46.657Z,11.30
2018-12-05T11:45:46.863Z,10.20
2018-12-05T11:46:46.629Z,16.90
2018-12-05T11:47:46.768Z,13.10
2018-12-05T11:48:46.625Z,10.30
2018-12-05T11:49:46.797Z,22.00
2018-12-05T11:50:46.592Z,15.80
2018-12-05T11:51:46.660Z,14.30
2018-12-05T11:52:46.602Z,12.20
2018-12-05T11:53:46.629Z,11.10
2018-12-05T11:54:46.544Z,12.10
2018-12-05T11:55:46.611Z,8.60
2018-12-05T11:56:46.533Z,11.30
2018-12-05T11:57:46.567Z,14.80
2018-12-05T11:58:46.529Z,10.00
2018-12-05T11:59:46.547Z,14.00
2018-12-05T12:00:46.475Z,13.10
2018-12-05T12:01:46.469Z,10.80
2018-12-05T12:02:46.463Z,15.70
2018-12-05T12:03:46.511Z,12.00
2018-12-05T12:04:46.429Z,14.00
2018-12-05T12:05:46.561Z,11.40
2018-12-05T12:06:46.415Z,11.90
2018-12-05T12:07:46.513Z,14.50
2018-12-05T12:08:46.407Z,11.00
2018-12-05T12:09:46.481Z,13.30
2018-12-05T12:10:46.363Z,23.80
2018-12-05T12:11:46.445Z,16.00
2018-12-05T12:12:46.339Z,14.50
2018-12-05T12:13:46.451Z,15.60
2018-12-05T12:14:46.329Z,12.20
2018-12-05T12:15:46.379Z,17.40
2018-12-05T12:16:46.309Z,19.30
2018-12-05T12:17:46.360Z,12.90
2018-12-05T12:18:46.294Z,23.20
2018-12-05T12:19:47.343Z,16.40
2018-12-05T12:20:46.255Z,18.90
2018-12-05T12:21:46.293Z,11.80
2018-12-05T12:22:46.231Z,11.50
2018-12-05T12:23:46.311Z,9.50
2018-12-05T12:24:46.209Z,10.40
2018-12-05T12:25:46.221Z,8.00
2018-12-05T12:26:46.188Z,11.50
2018-12-05T12:27:46.192Z,12.50
2018-12-05T12:28:46.191Z,13.50
2018-12-05T12:29:46.259Z,12.30
2018-12-05T12:30:46.148Z,9.70
2018-12-05T12:31:46.243Z,11.40
2018-12-05T12:32:46.115Z,12.70
2018-12-05T12:33:46.243Z,11.80
2018-12-05T12:34:46.101Z,11.80
2018-12-05T12:35:46.181Z,17.30
2018-12-05T12:36:46.085Z,18.30
2018-12-05T12:37:46.223Z,17.80
2018-12-05T12:38:46.051Z,10.90
2018-12-05T12:39:46.153Z,14.30
2018-12-05T12:40:46.023Z,12.60
2018-12-05T12:41:46.098Z,13.30
2018-12-05T12:42:46.006Z,15.20
2018-12-05T12:43:46.040Z,21.00
2018-12-05T12:44:45.995Z,10.70
2018-12-05T12:45:46.006Z,16.70
2018-12-05T12:46:45.965Z,34.40
2018-12-05T12:47:45.975Z,37.70
2018-12-05T12:48:45.942Z,66.60
2018-12-05T12:49:45.983Z,30.20
2018-12-05T12:50:45.915Z,29.60
2018-12-05T12:51:46.014Z,56.90
2018-12-05T12:52:45.898Z,30.80
2018-12-05T12:53:45.998Z,38.30
2018-12-05T12:54:45.906Z,35.00
2018-12-05T12:55:46.043Z,41.10
2018-12-05T12:56:45.853Z,24.20
2018-12-05T12:57:45.923Z,42.20
2018-12-05T12:58:45.835Z,42.00
2018-12-05T12:59:45.952Z,34.50
2018-12-05T13:00:45.807Z,29.90
2018-12-05T13:01:45.886Z,41.50
2018-12-05T13:02:45.782Z,49.00
2018-12-05T13:03:45.826Z,45.80
2018-12-05T13:04:45.781Z,64.80
2018-12-05T13:05:45.792Z,39.90
2018-12-05T13:06:45.732Z,38.40
2018-12-05T13:07:45.761Z,25.90
2018-12-05T13:08:45.712Z,32.40
2018-12-05T13:09:45.774Z,31.70
2018-12-05T13:10:45.689Z,21.10
2018-12-05T13:11:45.805Z,24.00
2018-12-05T13:12:45.668Z,24.40
2018-12-05T13:13:46.686Z,22.50
2018-12-05T13:14:45.669Z,14.50
2018-12-05T13:15:45.747Z,17.90
2018-12-05T13:16:45.626Z,24.70
2018-12-05T13:17:45.703Z,15.10
2018-12-05T13:18:45.610Z,15.00
2018-12-05T13:19:45.724Z,22.20
2018-12-05T13:20:45.591Z,10.10
2018-12-05T13:21:45.643Z,17.00
2018-12-05T13:22:45.561Z,12.70
2018-12-05T13:23:45.607Z,13.20
2018-12-05T13:24:45.555Z,18.30
2018-12-05T13:25:45.581Z,22.10
2018-12-05T13:26:45.531Z,16.80
2018-12-05T13:27:45.551Z,14.70
2018-12-05T13:28:45.499Z,12.60
2018-12-05T13:29:45.550Z,17.20
2018-12-05T13:30:45.465Z,17.50
2018-12-05T13:31:45.481Z,16.90
2018-12-05T13:32:45.437Z,9.60
2018-12-05T13:33:45.556Z,13.80
2018-12-05T13:34:45.463Z,18.40
2018-12-05T13:35:45.457Z,20.50
2018-12-05T13:36:45.397Z,10.80
2018-12-05T13:37:45.495Z,14.10
2018-12-05T13:38:45.373Z,15.40
2018-12-05T13:39:45.459Z,15.50
2018-12-05T13:40:47.001Z,15.80
2018-12-05T13:41:45.431Z,14.70
2018-12-05T13:42:45.341Z,13.20
2018-12-05T13:43:45.388Z,16.60
2018-12-05T13:44:45.311Z,13.00
2018-12-05T13:45:45.413Z,12.70
2018-12-05T13:46:45.289Z,20.90
2018-12-05T13:47:45.327Z,15.40
2018-12-05T13:48:45.274Z,18.30
2018-12-05T13:49:45.298Z,15.10
2018-12-05T13:50:45.275Z,14.40
2018-12-05T13:51:45.366Z,7.00
2018-12-05T13:52:45.226Z,15.70
2018-12-05T13:53:45.334Z,17.30
2018-12-05T13:54:45.202Z,22.50
2018-12-05T13:55:46.358Z,15.70
2018-12-05T13:56:45.173Z,19.00
2018-12-05T13:57:45.281Z,17.60
2018-12-05T13:58:45.157Z,14.90
2018-12-05T13:59:45.239Z,26.10
2018-12-05T14:00:45.159Z,34.80
2018-12-05T14:01:45.220Z,19.30
2018-12-05T14:02:45.113Z,24.50
2018-12-05T14:03:45.174Z,20.20
2018-12-05T14:04:45.080Z,22.30
2018-12-05T14:05:45.188Z,25.50
2018-12-05T14:06:45.064Z,21.30
2018-12-05T14:07:45.126Z,16.90
2018-12-05T14:08:45.044Z,16.70
2018-12-05T14:09:45.084Z,21.90
2018-12-05T14:10:45.032Z,21.00
2018-12-05T14:11:45.049Z,18.60
2018-12-05T14:12:44.998Z,16.00
2018-12-05T14:13:45.028Z,17.60
2018-12-05T14:14:44.977Z,17.00
2018-12-05T14:15:45.027Z,10.40
2018-12-05T14:16:44.967Z,21.30
2018-12-05T14:17:45.057Z,10.20
2018-12-05T14:18:44.927Z,12.20
2018-12-05T14:19:45.029Z,15.70
2018-12-05T14:20:44.931Z,21.30
2018-12-05T14:21:45.035Z,34.40
2018-12-05T14:22:44.887Z,22.70
2018-12-05T14:23:44.963Z,28.10
2018-12-05T14:24:44.861Z,20.20
2018-12-05T14:25:44.965Z,23.10
2018-12-05T14:26:44.854Z,26.40
2018-12-05T14:27:44.900Z,31.40
2018-12-05T14:28:44.817Z,38.50
2018-12-05T14:29:44.817Z,22.00
2018-12-05T14:30:46.491Z,40.50
2018-12-05T14:31:45.896Z,43.10
2018-12-05T14:32:44.768Z,47.00
2018-12-05T14:33:44.805Z,43.50
2018-12-05T14:34:44.747Z,41.80
2018-12-05T14:35:44.794Z,39.00
2018-12-05T14:36:44.751Z,20.80
2018-12-05T14:37:44.852Z,21.90
2018-12-05T14:38:44.709Z,22.00
2018-12-05T14:39:44.819Z,16.20
2018-12-05T14:40:44.679Z,14.90
2018-12-05T14:41:44.721Z,12.50
2018-12-05T14:42:44.661Z,14.60
2018-12-05T14:43:44.747Z,15.80
2018-12-05T14:44:44.639Z,11.80
2018-12-05T14:45:44.715Z,15.80
2018-12-05T14:46:44.624Z,11.40
2018-12-05T14:47:44.686Z,23.60
2018-12-05T14:48:44.591Z,20.50
2018-12-05T14:49:45.673Z,23.40
2018-12-05T14:50:44.572Z,22.40
2018-12-05T14:51:44.671Z,15.80
2018-12-05T14:52:44.547Z,19.80
2018-12-05T14:53:44.592Z,17.70
2018-12-05T14:54:44.529Z,15.50
2018-12-05T14:55:44.551Z,17.60
2018-12-05T14:56:44.527Z,25.00
2018-12-05T14:57:44.539Z,17.00
2018-12-05T14:58:44.491Z,22.50
2018-12-05T14:59:44.589Z,17.30
2018-12-05T15:00:44.458Z,19.60
2018-12-05T15:01:44.503Z,14.50
2018-12-05T15:02:44.428Z,16.80
2018-12-05T15:03:44.531Z,22.10
2018-12-05T15:04:44.411Z,16.60
2018-12-05T15:05:44.512Z,15.70
2018-12-05T15:06:44.429Z,19.80
2018-12-05T15:07:44.469Z,17.50
2018-12-05T15:08:44.365Z,21.20
2018-12-05T15:09:44.439Z,16.40
2018-12-05T15:10:44.346Z,14.30
2018-12-05T15:11:44.442Z,25.60
2018-12-05T15:12:44.324Z,18.30
2018-12-05T15:13:44.373Z,15.00
2018-12-05T15:14:44.295Z,11.20
2018-12-05T15:15:44.350Z,12.40
2018-12-05T15:16:44.305Z,12.80
2018-12-05T15:17:45.331Z,10.60
2018-12-05T15:18:44.263Z,8.30
2018-12-05T15:19:44.288Z,9.10
2018-12-05T15:20:44.297Z,11.20
2018-12-05T15:21:44.341Z,8.70
2018-12-05T15:22:44.224Z,11.00
2018-12-05T15:23:44.424Z,7.70
2018-12-05T15:24:44.189Z,9.00
2018-12-05T15:25:44.281Z,29.40
2018-12-05T15:26:44.171Z,82.50
2018-12-05T15:27:44.305Z,101.10
2018-12-05T15:28:44.141Z,47.30
2018-12-05T15:29:44.218Z,34.90
2018-12-05T15:30:44.119Z,59.30
2018-12-05T15:31:44.184Z,83.60
2018-12-05T15:32:44.126Z,43.00
2018-12-05T15:33:44.182Z,80.90
2018-12-05T15:34:44.079Z,127.80
2018-12-05T15:35:44.119Z,69.70
2018-12-05T15:36:44.052Z,53.10
2018-12-05T15:37:44.127Z,70.60
2018-12-05T15:38:44.030Z,52.80
2018-12-05T15:39:44.067Z,61.50
2018-12-05T15:40:44.025Z,83.40
2018-12-05T15:41:44.039Z,39.50
2018-12-05T15:42:43.996Z,33.40
2018-12-05T15:43:44.100Z,53.60
2018-12-05T15:44:43.964Z,42.90
2018-12-05T15:45:44.063Z,57.60
2018-12-05T15:46:43.935Z,83.70
2018-12-05T15:47:44.073Z,81.20
2018-12-05T15:48:43.913Z,66.00
2018-12-05T15:49:44.002Z,117.30
2018-12-05T15:50:43.903Z,66.00
2018-12-05T15:51:43.969Z,62.70
2018-12-05T15:52:43.973Z,59.80
2018-12-05T15:53:43.932Z,101.80
2018-12-05T15:54:43.851Z,83.40
2018-12-05T15:55:43.921Z,48.20
2018-12-05T15:56:43.827Z,38.30
2018-12-05T15:57:43.911Z,41.80
2018-12-05T15:58:43.803Z,32.70
2018-12-05T15:59:43.854Z,26.90
2018-12-05T16:00:43.780Z,36.30
2018-12-05T16:01:43.807Z,29.20
2018-12-05T16:02:43.764Z,29.10
2018-12-05T16:03:43.819Z,45.80
2018-12-05T16:04:43.733Z,46.30
2018-12-05T16:05:43.744Z,92.90
2018-12-05T16:06:43.722Z,53.80
2018-12-05T16:07:44.746Z,50.90
2018-12-05T16:08:43.713Z,64.50
2018-12-05T16:09:44.703Z,57.50
2018-12-05T16:10:43.668Z,31.40
2018-12-05T16:11:43.752Z,24.20
2018-12-05T16:12:43.645Z,31.00
2018-12-05T16:13:43.753Z,18.10
2018-12-05T16:14:43.637Z,21.40
2018-12-05T16:15:43.688Z,22.70
2018-12-05T16:16:43.615Z,24.50
2018-12-05T16:17:43.662Z,27.90
2018-12-05T16:18:43.616Z,23.10
2018-12-05T16:19:43.628Z,23.00
2018-12-05T16:20:43.559Z,28.10
2018-12-05T16:21:43.604Z,22.20
2018-12-05T16:22:43.531Z,31.90
2018-12-05T16:23:43.609Z,32.20
2018-12-05T16:24:43.511Z,40.50
2018-12-05T16:25:43.528Z,55.70
2018-12-05T16:26:43.489Z,34.80
2018-12-05T16:27:43.600Z,61.60
2018-12-05T16:28:43.485Z,173.60
2018-12-05T16:29:43.577Z,196.70
2018-12-05T16:30:43.460Z,96.50
2018-12-05T16:31:43.556Z,76.70
2018-12-05T16:32:43.518Z,62.80
2018-12-05T16:33:43.542Z,33.80
2018-12-05T16:34:43.419Z,27.70
2018-12-05T16:35:43.481Z,28.80
2018-12-05T16:36:43.393Z,21.60
2018-12-05T16:37:43.440Z,25.10
2018-12-05T16:38:43.401Z,17.90
2018-12-05T16:39:43.414Z,22.00
2018-12-05T16:40:43.334Z,23.00
2018-12-05T16:41:43.449Z,14.00
2018-12-05T16:42:43.327Z,17.30
2018-12-05T16:43:43.391Z,17.80
2018-12-05T16:44:43.289Z,13.40
2018-12-05T16:45:43.315Z,15.10
2018-12-05T16:46:43.265Z,13.30
2018-12-05T16:47:43.390Z,14.60
2018-12-05T16:48:43.292Z,19.80
2018-12-05T16:49:44.275Z,13.30
2018-12-05T16:50:43.215Z,14.40
2018-12-05T16:51:44.238Z,12.00
2018-12-05T16:52:43.199Z,12.60
2018-12-05T16:53:43.304Z,8.50
2018-12-05T16:54:43.207Z,10.30
2018-12-05T16:55:43.255Z,10.90
2018-12-05T16:56:43.155Z,11.50
2018-12-05T16:57:43.247Z,19.10
2018-12-05T16:58:43.131Z,229.50
2018-12-05T16:59:43.240Z,26.00
2018-12-05T17:00:43.119Z,52.10
2018-12-05T17:01:43.162Z,30.00
2018-12-05T17:02:43.093Z,25.70
2018-12-05T17:03:43.131Z,25.60
2018-12-05T17:04:43.089Z,43.20
2018-12-05T17:05:43.101Z,18.80
2018-12-05T17:06:43.058Z,44.20
2018-12-05T17:07:43.070Z,19.70
2018-12-05T17:08:43.017Z,12.80
2018-12-05T17:09:43.085Z,11.10
2018-12-05T17:10:42.996Z,17.30
2018-12-05T17:11:43.010Z,28.50
2018-12-05T17:12:42.995Z,14.70
2018-12-05T17:13:43.069Z,13.30
2018-12-05T17:14:42.973Z,19.20
2018-12-05T17:15:43.043Z,19.00
2018-12-05T17:16:42.927Z,15.30
2018-12-05T17:17:43.004Z,13.70
2018-12-05T17:18:42.910Z,15.80
2018-12-05T17:19:43.023Z,9.90
2018-12-05T17:20:42.887Z,16.50
2018-12-05T17:21:42.944Z,19.80
2018-12-05T17:22:42.866Z,22.30
2018-12-05T17:23:42.915Z,13.80
2018-12-05T17:24:42.864Z,47.50
2018-12-05T17:25:42.891Z,25.10
2018-12-05T17:26:42.829Z,58.70
2018-12-05T17:27:42.855Z,42.80
2018-12-05T17:28:42.798Z,34.40
2018-12-05T17:29:42.851Z,71.00
2018-12-05T17:30:42.785Z,77.70
2018-12-05T17:31:42.783Z,46.70
2018-12-05T17:32:42.757Z,35.80
2018-12-05T17:33:43.891Z,40.90
2018-12-05T17:34:42.729Z,75.90
2018-12-05T17:35:43.781Z,33.00
2018-12-05T17:36:42.704Z,16.10
2018-12-05T17:37:42.795Z,16.50
2018-12-05T17:38:42.681Z,37.00
2018-12-05T17:39:42.774Z,33.20
2018-12-05T17:40:42.683Z,44.40
2018-12-05T17:41:42.737Z,26.70
2018-12-05T17:42:42.641Z,39.20
2018-12-05T17:43:42.702Z,26.10
2018-12-05T17:44:42.615Z,27.40
2018-12-05T17:45:42.701Z,62.00
2018-12-05T17:46:42.587Z,46.90
2018-12-05T17:47:42.632Z,99.20
2018-12-05T17:48:42.574Z,20.50
2018-12-05T17:49:42.599Z,43.30
2018-12-05T17:50:42.699Z,36.50
2018-12-05T17:51:42.567Z,54.30
2018-12-05T17:52:42.523Z,30.70
2018-12-05T17:53:42.534Z,34.60
2018-12-05T17:54:42.513Z,30.80
2018-12-05T17:55:42.555Z,21.20
2018-12-05T17:56:42.562Z,18.10
2018-12-05T17:57:42.607Z,19.50
2018-12-05T17:58:42.455Z,22.80
2018-12-05T17:59:42.550Z,23.00
2018-12-05T18:00:42.455Z,18.90
2018-12-05T18:01:44.255Z,14.50
2018-12-05T18:02:42.412Z,16.20
2018-12-05T18:03:42.479Z,19.10
2018-12-05T18:04:42.388Z,30.40
2018-12-05T18:05:42.498Z,24.90
2018-12-05T18:06:42.379Z,30.10
2018-12-05T18:07:42.417Z,9.50
2018-12-05T18:08:42.808Z,26.80
2018-12-05T18:09:42.385Z,20.40
2018-12-05T18:10:42.473Z,17.50
2018-12-05T18:11:42.391Z,16.50
2018-12-05T18:12:42.307Z,20.60
2018-12-05T18:13:42.974Z,29.30
2018-12-05T18:14:42.288Z,27.50
2018-12-05T18:15:47.409Z,26.70
2018-12-05T18:16:42.272Z,30.10
2018-12-05T18:17:43.284Z,43.30
2018-12-05T18:18:42.227Z,27.20
2018-12-05T18:19:42.339Z,49.50
2018-12-05T18:20:42.225Z,51.40
2018-12-05T18:21:42.469Z,34.40
2018-12-05T18:22:42.201Z,36.60
2018-12-05T18:23:42.261Z,42.00
2018-12-05T18:24:42.787Z,60.10
2018-12-05T18:25:43.355Z,35.90
2018-12-05T18:26:44.331Z,46.00
2018-12-05T18:27:43.225Z,38.70
2018-12-05T18:28:42.129Z,40.40
2018-12-05T18:29:42.175Z,40.20
2018-12-05T18:30:42.098Z,29.20
2018-12-05T18:31:42.272Z,44.20
2018-12-05T18:32:42.073Z,36.00
2018-12-05T18:33:42.109Z,32.10
2018-12-05T18:34:42.073Z,32.30
2018-12-05T18:35:42.185Z,27.90
2018-12-05T18:36:42.051Z,67.00
2018-12-05T18:37:42.149Z,46.60
2018-12-05T18:38:42.009Z,35.40
2018-12-05T18:39:42.119Z,41.00
2018-12-05T18:40:41.983Z,32.20
2018-12-05T18:41:42.125Z,35.30
2018-12-05T18:42:41.975Z,25.60
2018-12-05T18:43:42.261Z,44.60
2018-12-05T18:44:41.951Z,30.00
2018-12-05T18:45:42.029Z,55.90
2018-12-05T18:46:41.937Z,39.00
2018-12-05T18:47:42.103Z,73.80
2018-12-05T18:48:41.913Z,34.40
2018-12-05T18:49:42.055Z,49.90
2018-12-05T18:50:41.888Z,35.80
2018-12-05T18:51:41.955Z,27.80
2018-12-05T18:52:41.846Z,37.70
2018-12-05T18:53:41.999Z,30.60
2018-12-05T18:54:41.850Z,30.80
2018-12-05T18:55:41.964Z,23.50
2018-12-05T18:56:41.834Z,20.20
2018-12-05T18:57:41.932Z,17.60
2018-12-05T18:58:41.792Z,30.90
2018-12-05T18:59:41.904Z,31.00
2018-12-05T19:00:41.757Z,23.70
2018-12-05T19:01:41.974Z,16.60
2018-12-05T19:02:41.764Z,23.40
2018-12-05T19:03:41.830Z,23.00
2018-12-05T19:04:41.716Z,19.00
2018-12-05T19:05:41.901Z,28.40
2018-12-05T19:06:41.700Z,19.10
2018-12-05T19:07:41.819Z,23.90
2018-12-05T19:08:41.664Z,17.20
2018-12-05T19:09:41.751Z,19.40
2018-12-05T19:10:41.652Z,15.00
2018-12-05T19:11:41.804Z,15.00
2018-12-05T19:12:41.644Z,13.70
2018-12-05T19:13:41.671Z,8.60
2018-12-05T19:14:41.606Z,16.10
2018-12-05T19:15:41.644Z,11.90
2018-12-05T19:16:41.582Z,45.50
2018-12-05T19:17:41.658Z,16.70
2018-12-05T19:18:41.562Z,21.00
2018-12-05T19:19:41.591Z,10.90
2018-12-05T19:20:41.547Z,14.80
2018-12-05T19:21:41.548Z,7.50
2018-12-05T19:22:41.534Z,11.10
2018-12-05T19:23:41.613Z,11.80
2018-12-05T19:24:41.491Z,13.40
2018-12-05T19:25:41.661Z,15.50
2018-12-05T19:26:41.473Z,13.20
2018-12-05T19:27:41.604Z,15.80
2018-12-05T19:28:41.450Z,18.80
2018-12-05T19:29:41.520Z,10.10
2018-12-05T19:30:41.420Z,12.70
2018-12-05T19:31:41.494Z,13.80
2018-12-05T19:32:41.434Z,13.70
2018-12-05T19:33:41.466Z,11.90
2018-12-05T19:34:41.382Z,12.00
2018-12-05T19:35:41.430Z,11.80
2018-12-05T19:36:41.380Z,8.90
2018-12-05T19:37:41.414Z,16.40
2018-12-05T19:38:41.350Z,9.90
2018-12-05T19:39:41.365Z,11.00
2018-12-05T19:40:41.325Z,17.60
2018-12-05T19:41:41.329Z,8.90
2018-12-05T19:42:41.288Z,8.60
2018-12-05T19:43:41.342Z,16.60
2018-12-05T19:44:41.267Z,13.50
2018-12-05T19:45:42.397Z,15.50
2018-12-05T19:46:41.271Z,12.90
2018-12-05T19:47:42.256Z,7.90
2018-12-05T19:48:41.259Z,8.10
2018-12-05T19:49:43.251Z,12.80
2018-12-05T19:50:41.206Z,16.00
2018-12-05T19:51:41.273Z,19.30
2018-12-05T19:52:41.210Z,21.80
2018-12-05T19:53:41.277Z,17.90
2018-12-05T19:54:41.143Z,18.20
2018-12-05T19:55:41.326Z,22.90
2018-12-05T19:56:41.142Z,14.30
2018-12-05T19:57:41.278Z,34.40
2018-12-05T19:58:41.155Z,13.30
2018-12-05T19:59:41.257Z,20.20
2018-12-05T20:00:41.078Z,23.20
2018-12-05T20:01:41.116Z,28.80
2018-12-05T20:02:41.060Z,20.20
2018-12-05T20:03:41.219Z,17.50
2018-12-05T20:04:41.046Z,45.80
2018-12-05T20:05:41.151Z,22.00
2018-12-05T20:06:41.016Z,32.90
2018-12-05T20:07:41.220Z,33.20
2018-12-05T20:08:42.787Z,35.10
2018-12-05T20:09:41.087Z,27.40
2018-12-05T20:10:40.965Z,34.70
2018-12-05T20:11:41.053Z,44.50
2018-12-05T20:12:40.950Z,43.70
2018-12-05T20:13:44.029Z,22.40
2018-12-05T20:14:40.936Z,23.40
2018-12-05T20:15:41.000Z,45.50
2018-12-05T20:16:40.912Z,39.00
2018-12-05T20:17:40.974Z,74.10
2018-12-05T20:18:40.885Z,35.80
2018-12-05T20:19:40.981Z,37.20
2018-12-05T20:20:40.874Z,27.80
2018-12-05T20:21:41.000Z,35.80
2018-12-05T20:22:40.834Z,19.40
2018-12-05T20:23:40.865Z,28.70
2018-12-05T20:24:40.843Z,10.10
2018-12-05T20:25:41.041Z,37.10
2018-12-05T20:26:40.793Z,18.80
2018-12-05T20:27:40.902Z,31.60
2018-12-05T20:28:42.244Z,14.80
2018-12-05T20:29:41.069Z,21.20
2018-12-05T20:30:40.759Z,16.70
2018-12-05T20:31:41.869Z,22.50
2018-12-05T20:32:40.723Z,24.80
2018-12-05T20:33:40.820Z,27.70
2018-12-05T20:34:40.727Z,18.20
2018-12-05T20:35:40.892Z,55.40
2018-12-05T20:36:40.915Z,122.50
2018-12-05T20:37:40.744Z,60.90
2018-12-05T20:38:40.658Z,41.00
2018-12-05T20:39:40.869Z,46.10
2018-12-05T20:40:40.639Z,49.60
2018-12-05T20:41:41.722Z,54.30
2018-12-05T20:42:40.632Z,47.80
2018-12-05T20:43:41.774Z,43.00
2018-12-05T20:44:40.601Z,55.80
2018-12-05T20:45:40.721Z,38.30
2018-12-05T20:46:40.569Z,38.00
2018-12-05T20:47:40.592Z,46.00
2018-12-05T20:48:40.549Z,32.10
2018-12-05T20:49:40.710Z,34.60
2018-12-05T20:50:40.525Z,47.40
2018-12-05T20:51:40.631Z,33.60
2018-12-05T20:52:40.500Z,23.40
2018-12-05T20:53:40.607Z,28.80
2018-12-05T20:54:40.486Z,32.70
2018-12-05T20:55:40.609Z,29.90
2018-12-05T20:56:40.458Z,13.30
2018-12-05T20:57:40.636Z,18.20
2018-12-05T20:58:40.440Z,14.70
2018-12-05T20:59:40.542Z,18.20
2018-12-05T21:00:40.444Z,12.40
2018-12-05T21:01:40.568Z,16.70
2018-12-05T21:02:40.387Z,25.40
2018-12-05T21:03:40.530Z,19.00
2018-12-05T21:04:40.368Z,19.00
2018-12-05T21:05:41.576Z,15.20
2018-12-05T21:06:40.335Z,18.70
2018-12-05T21:07:40.478Z,21.60
2018-12-05T21:08:40.318Z,18.10
2018-12-05T21:09:42.380Z,24.00
2018-12-05T21:10:40.334Z,14.40
2018-12-05T21:11:40.416Z,18.70
2018-12-05T21:12:40.276Z,20.10
2018-12-05T21:13:41.398Z,13.60
2018-12-05T21:14:40.247Z,14.50
2018-12-05T21:15:41.273Z,21.00
2018-12-05T21:16:40.228Z,19.50
2018-12-05T21:17:40.314Z,16.90
2018-12-05T21:18:40.237Z,16.70
2018-12-05T21:19:40.392Z,19.00
2018-12-05T21:20:40.206Z,13.50
2018-12-05T21:21:42.294Z,16.40
2018-12-05T21:22:46.928Z,18.90
2018-12-05T21:23:43.295Z,26.10
2018-12-05T21:24:40.144Z,22.90
2018-12-05T21:25:40.328Z,17.30
2018-12-05T21:26:40.131Z,9.70
2018-12-05T21:27:40.155Z,20.40
2018-12-05T21:28:40.103Z,11.00
2018-12-05T21:29:40.134Z,10.90
2018-12-05T21:30:40.093Z,16.90
2018-12-05T21:31:40.090Z,16.80
2018-12-05T21:32:40.060Z,17.10
2018-12-05T21:33:40.070Z,17.40
2018-12-05T21:34:40.023Z,12.10
2018-12-05T21:35:40.084Z,11.90
2018-12-05T21:36:40.034Z,18.10